M I D A S
Marine Information and Data Acquisition System
Tripno 1231 of the Zeeleeuw from 2007-03-14 09:39:51 to 2007-03-14 15:19:52
Back to CruiseResearch ActivitiesStationsMapUnderway DataData graphs

EquipmentUnitsComment
TimeDGPSUTC
LatitudeDGPSDM.mWGS84
LongitudeDGPSDM.mWGS84
TemperatureSBE03/SBE38deg celciusITS90
ConductivitySBE21S/mITS90
SalinitySBE21 Practical Salinity Units
ChlorophylAChelsea fluorimeterg/lCalibrated in Aceton
Missing or incorrect values are displayed as -999
Sea surface data collected by the RV Zeeleeuw from 2007-03-14 07:26:35 to 2007-03-14 15:30:33
Time Latitude Longitude Temperature Conductivity Salinity ChlorophylA
2007-03-14 07:27:40 51°13.597 2°56.094 16.2307 4.074134 31.36366 -2.871232
2007-03-14 07:28:40 51°13.597 2°56.094 16.2109 4.073615 31.363381 -2.871232
2007-03-14 07:29:40 51°13.598 2°56.094 16.1958 4.073201 31.363296 -2.871232
2007-03-14 07:30:40 51°13.598 2°56.094 16.1929 4.072786 31.363907 -2.871232
2007-03-14 07:31:40 51°13.598 2°56.094 16.2278 4.072268 31.363627 -2.871232
2007-03-14 07:32:40 51°13.599 2°56.094 16.2234 4.071853 31.363543 -2.871232
2007-03-14 07:33:40 51°13.598 2°56.094 16.2242 4.071334 31.363264 -2.871232
2007-03-14 07:34:40 51°13.598 2°56.094 16.239 4.07092 31.363875 -2.871232
2007-03-14 07:35:40 51°13.598 2°56.094 16.2039 4.070401 31.363596 -2.871232
2007-03-14 07:36:40 51°13.597 2°56.094 16.2116 4.069987 31.364208 -2.871232
2007-03-14 07:37:40 51°13.598 2°56.095 16.2186 4.069468 31.363929 -2.871232
2007-03-14 07:38:40 51°13.599 2°56.094 16.2076 4.069053 31.363845 -2.871232
2007-03-14 07:39:40 51°13.599 2°56.095 16.2191 4.068535 31.363567 -2.871232
2007-03-14 07:40:40 51°13.599 2°56.095 16.2212 4.06812 31.364179 -2.871232
2007-03-14 07:41:40 51°13.598 2°56.095 16.2259 4.067706 31.364096 -2.871232
2007-03-14 07:42:40 51°13.598 2°56.094 16.2374 4.067187 31.363817 -2.871232
2007-03-14 07:43:40 51°13.598 2°56.095 16.2414 4.066772 31.36443 -2.871232
2007-03-14 07:44:40 51°13.598 2°56.095 16.2421 4.066358 31.364347 -2.871232
2007-03-14 07:45:40 51°13.598 2°56.095 16.2324 4.065839 31.364766 -2.871232
2007-03-14 07:46:40 51°13.598 2°56.096 16.236 4.065425 31.364683 -2.871232
2007-03-14 07:47:40 51°13.598 2°56.095 16.2155 4.064906 31.364405 -2.871232
2007-03-14 07:48:40 51°13.598 2°56.094 16.2413 4.064492 31.365019 -2.871232
2007-03-14 07:49:40 51°13.599 2°56.095 16.2387 4.063973 31.364741 -2.871232
2007-03-14 07:50:40 51°13.599 2°56.094 16.2077 4.063558 31.364659 -2.871232
2007-03-14 07:51:40 51°13.599 2°56.094 16.2442 4.06304 31.364381 -2.871232
2007-03-14 07:52:40 51°13.599 2°56.094 16.226 4.062625 31.364996 -2.871232
2007-03-14 07:53:40 51°13.599 2°56.094 16.2258 4.062211 31.364913 -2.871232
2007-03-14 07:54:40 51°13.598 2°56.094 16.2461 4.061692 31.364636 -2.871232
2007-03-14 07:55:40 51°13.599 2°56.094 16.3937 4.061277 31.365252 -2.871232
2007-03-14 07:56:40 51°13.599 2°56.094 16.3568 4.060863 31.365867 -2.871232
2007-03-14 07:57:40 51°13.599 2°56.094 16.3483 4.060448 31.365785 -2.871232
2007-03-14 07:58:40 51°13.599 2°56.093 16.3249 4.05993 31.365509 -2.871232
2007-03-14 07:59:40 51°13.598 2°56.093 16.3382 4.059515 31.366125 -2.871232
2007-03-14 08:00:40 51°13.599 2°56.094 16.3398 4.0591 31.366741 -2.871232
2007-03-14 08:01:40 51°13.599 2°56.094 16.3354 4.058582 31.366465 -2.871232
2007-03-14 08:02:40 51°13.598 2°56.094 16.3452 4.058167 31.367082 -2.871232
2007-03-14 08:03:40 51°13.598 2°56.095 16.3436 4.057649 31.366806 -2.871232
2007-03-14 08:04:40 51°13.599 2°56.095 16.3465 4.057234 31.367423 -2.871232
2007-03-14 08:05:40 51°13.599 2°56.095 16.3588 4.056716 31.366448 -2.871232
2007-03-14 08:06:40 51°13.597 2°56.094 16.3603 4.056301 31.367066 -2.871232
2007-03-14 08:07:40 51°13.597 2°56.094 16.3648 4.055783 31.36679 -2.871232
2007-03-14 08:08:40 51°13.597 2°56.094 16.3716 4.055368 31.367408 -2.871232
2007-03-14 08:09:40 51°13.597 2°56.093 16.384 4.054849 31.366433 -2.871232
2007-03-14 08:10:40 51°13.597 2°56.093 16.3861 4.054435 31.367052 -2.871232
2007-03-14 08:11:40 51°13.597 2°56.093 16.387 4.05402 31.367671 -2.871232
2007-03-14 08:12:40 51°13.598 2°56.094 16.3933 4.053605 31.36759 -2.871232
2007-03-14 08:13:40 51°13.598 2°56.094 16.3989 4.053191 31.36751 -2.871232
2007-03-14 08:14:40 51°13.597 2°56.093 16.3983 4.052776 31.368129 -2.871232
2007-03-14 08:15:40 51°13.598 2°56.094 16.409 4.052361 31.368049 -2.871232
2007-03-14 08:16:40 51°13.599 2°56.093 16.4202 4.051843 31.367074 -2.871232
2007-03-14 08:17:40 51°13.598 2°56.094 16.4193 4.051428 31.367694 -2.871232
2007-03-14 08:18:40 51°13.598 2°56.094 16.4303 4.051013 31.367614 -2.871232
2007-03-14 08:19:40 51°13.597 2°56.094 16.4229 4.050702 31.368429 -2.871232
2007-03-14 08:20:40 51°13.597 2°56.093 16.4264 4.050288 31.368349 -2.871232
2007-03-14 08:21:40 51°13.597 2°56.093 16.4432 4.049873 31.36827 -2.871232
2007-03-14 08:22:40 51°13.598 2°56.093 16.4543 4.049458 31.36889 -2.871232
2007-03-14 08:23:40 51°13.599 2°56.093 16.4586 4.049044 31.368811 -2.871232
2007-03-14 08:24:40 51°13.599 2°56.094 16.4658 4.048733 31.370328 -2.871232
2007-03-14 08:25:40 51°13.6 2°56.094 16.4799 4.048318 31.370249 -2.871232
2007-03-14 08:26:40 51°13.6 2°56.094 16.4853 4.047903 31.37017 -2.871232
2007-03-14 08:27:40 51°13.599 2°56.094 16.497 4.047488 31.370091 -2.871232
2007-03-14 08:28:40 51°13.599 2°56.095 16.5039 4.047177 31.370207 -2.871232
2007-03-14 08:29:40 51°13.598 2°56.094 16.5128 4.046763 31.370128 -2.871232
2007-03-14 08:30:40 51°13.598 2°56.094 16.5177 4.046452 31.370945 -2.871232
2007-03-14 08:31:40 51°13.599 2°56.094 16.5221 4.046141 31.371061 -2.871232
2007-03-14 08:32:40 51°13.599 2°56.094 16.5302 4.045726 31.370281 -2.871232
2007-03-14 08:33:40 51°13.599 2°56.094 16.5381 4.045415 31.371099 -2.871232
2007-03-14 08:34:40 51°13.599 2°56.094 16.5345 4.045 31.371021 -2.871232
2007-03-14 08:35:40 51°13.598 2°56.094 16.5427 4.044689 31.371137 -2.871232
2007-03-14 08:36:40 51°13.599 2°56.094 16.5493 4.044378 31.371956 -2.871232
2007-03-14 08:37:40 51°13.599 2°56.094 16.5548 4.044067 31.372072 -2.871232
2007-03-14 08:38:40 51°13.599 2°56.094 16.5599 4.043652 31.371994 -2.871232
2007-03-14 08:39:40 51°13.599 2°56.095 16.58 4.043341 31.372111 -2.871232
2007-03-14 08:40:40 51°13.599 2°56.095 16.6198 4.04303 31.372228 -2.871232
2007-03-14 08:41:40 51°13.599 2°56.094 16.6281 4.042719 31.372346 -2.871232
2007-03-14 08:42:40 51°13.599 2°56.094 16.6276 4.042408 31.372463 -2.871232
2007-03-14 08:43:40 51°13.598 2°56.094 16.5818 4.042097 31.37258 -2.871232
2007-03-14 08:44:40 51°13.598 2°56.094 16.5983 4.041786 31.372697 -2.871232
2007-03-14 08:45:40 51°13.598 2°56.094 16.6058 4.041475 31.372112 -2.871232
2007-03-14 08:46:40 51°13.598 2°56.094 16.623 4.041268 31.373127 -2.871232
2007-03-14 08:47:40 51°13.598 2°56.094 16.6577 4.040957 31.372542 -2.871232
2007-03-14 08:48:40 51°13.599 2°56.094 16.6543 4.04075 31.372855 -2.871232
2007-03-14 08:49:40 51°13.598 2°56.093 16.6433 4.040542 31.373167 -2.871232
2007-03-14 08:50:40 51°13.598 2°56.094 16.6595 4.040231 31.372583 -2.871232
2007-03-14 08:51:40 51°13.597 2°56.094 16.6528 4.040024 31.372895 -2.871232
2007-03-14 08:52:40 51°13.597 2°56.094 16.6577 4.039817 31.373208 -2.871232
2007-03-14 08:53:40 51°13.597 2°56.094 16.6599 4.039505 31.373326 -2.871232
2007-03-14 08:54:40 51°13.598 2°56.094 16.7029 4.039298 31.373639 -2.871232
2007-03-14 08:55:40 51°13.598 2°56.095 16.7087 4.039091 31.373951 -2.871232
2007-03-14 08:56:40 51°13.599 2°56.095 16.6553 4.038883 31.374264 -2.871232
2007-03-14 08:57:39 51°13.6 2°56.095 16.6497 4.038676 31.374577 -2.871232
2007-03-14 08:58:40 51°13.599 2°56.095 16.6755 4.038365 31.373993 -2.871232
2007-03-14 08:59:40 51°13.599 2°56.095 16.6553 4.038158 31.374306 -2.871232
2007-03-14 09:00:40 51°13.599 2°56.095 16.6881 4.03795 31.375322 -2.871232
2007-03-14 09:01:40 51°13.599 2°56.096 16.7083 4.037743 31.375635 -2.871232
2007-03-14 09:02:40 51°13.599 2°56.096 16.7276 4.037536 31.375246 -2.871232
2007-03-14 09:03:40 51°13.599 2°56.095 16.7367 4.037328 31.376262 -2.871232
2007-03-14 09:04:40 51°13.599 2°56.095 16.744 4.037017 31.375678 -2.871232
2007-03-14 09:05:40 51°13.598 2°56.094 16.6929 4.03681 31.375991 -2.871232
2007-03-14 09:06:40 51°13.599 2°56.094 16.7259 4.036603 31.376305 -2.871232
2007-03-14 09:07:40 51°13.599 2°56.094 16.7746 4.036395 31.376618 -2.871232
2007-03-14 09:08:40 51°13.598 2°56.094 16.7664 4.036188 31.376229 -2.871232
2007-03-14 09:09:40 51°13.597 2°56.094 16.7439 4.035981 31.376542 -2.871232
2007-03-14 09:10:40 51°13.599 2°56.095 16.7905 4.035877 31.377755 -2.871232
2007-03-14 09:11:40 51°13.6 2°56.094 16.7665 4.03567 31.378069 -2.871232
2007-03-14 09:12:40 51°13.597 2°56.094 16.8412 4.035462 31.377679 -2.871232
2007-03-14 09:13:40 51°13.597 2°56.094 16.8058 4.035255 31.377289 -2.871232
2007-03-14 09:14:40 51°13.597 2°56.095 16.8177 4.035048 31.377603 -2.871232
2007-03-14 09:15:40 51°13.597 2°56.096 16.817 4.034944 31.378112 -2.871232
2007-03-14 09:16:40 51°13.597 2°56.095 16.8236 4.03484 31.377917 -2.871232
2007-03-14 09:17:40 51°13.598 2°56.094 16.8215 4.034737 31.378426 -2.871232
2007-03-14 09:18:40 51°13.598 2°56.094 16.8291 4.034529 31.377333 -2.871232
2007-03-14 09:19:39 51°13.598 2°56.094 16.8807 4.034426 31.377842 -2.871232
2007-03-14 09:20:40 51°13.598 2°56.094 16.86 4.034426 31.378546 -2.871232
2007-03-14 09:21:40 51°13.598 2°56.094 16.8765 4.034322 31.378351 -2.871232
2007-03-14 09:22:40 51°13.598 2°56.095 16.8783 4.034218 31.37886 -2.871232
2007-03-14 09:23:39 51°13.598 2°56.095 16.8775 4.034218 31.379564 -2.871232
2007-03-14 09:24:40 51°13.598 2°56.094 16.8938 4.034115 31.380073 -2.871232
2007-03-14 09:25:40 51°13.598 2°56.095 16.8994 4.034011 31.379878 -2.871232
2007-03-14 09:26:40 51°13.599 2°56.096 16.953 4.034011 31.381287 -2.871232
2007-03-14 09:27:40 51°13.595 2°56.095 16.9368 4.033907 31.381092 -2.871232
2007-03-14 09:28:40 51°13.595 2°56.096 16.9766 4.033907 31.381796 -2.871232
2007-03-14 09:29:40 51°13.598 2°56.1 16.9543 4.033804 31.382306 -2.871232
2007-03-14 09:30:39 51°13.597 2°56.088 16.9275 4.033804 31.38301 -2.871232
2007-03-14 09:31:40 51°13.618 2°56.023 16.9431 4.0337 31.382815 -2.871232
2007-03-14 09:32:40 51°13.653 2°55.916 17.0641 4.0337 31.384224 -2.871232
2007-03-14 09:33:39 51°13.687 2°55.827 17.0241 4.033596 31.383325 -2.871232
2007-03-14 09:34:40 51°13.704 2°55.754 16.9902 4.033596 31.384029 -2.871232
2007-03-14 09:35:40 51°13.71 2°55.739 17.1053 4.033493 31.384539 -2.871232
2007-03-14 09:36:40 51°13.714 2°55.736 17.047 4.033493 31.385243 -2.871232
2007-03-14 09:37:40 51°13.707 2°55.721 17.0332 4.033389 31.384344 -2.871232
2007-03-14 09:38:40 51°13.736 2°55.703 17.1149 4.033389 31.385049 -2.871232
2007-03-14 09:39:39 51°13.815 2°55.649 16.97 4.033389 31.385049 -2.871232
2007-03-14 09:40:40 51°13.928 2°55.58 17.01 4.033389 31.387162 -2.871232
2007-03-14 09:41:40 51°14.046 2°55.506 17.064 4.033389 31.387162 -2.871232
2007-03-14 09:42:39 51°14.161 2°55.424 17.0634 4.033285 31.386967 -2.871232
2007-03-14 09:43:38 51°14.273 2°55.287 17.0483 4.033285 31.389081 -2.871232
2007-03-14 09:44:36 51°14.37 2°55.051 16.818 4.033285 31.389081 -2.871232
2007-03-14 09:45:36 51°14.474 2°54.779 16.9064 4.033182 31.388887 -2.871232
2007-03-14 09:46:36 51°14.565 2°54.487 16.8626 4.033078 31.389397 -2.871232
2007-03-14 09:47:36 51°14.658 2°54.176 16.9256 4.032974 31.389907 -2.871232
2007-03-14 09:48:36 51°14.765 2°53.865 17.0251 4.032871 31.390417 -2.871232
2007-03-14 09:49:36 51°14.787 2°53.523 16.8694 4.032767 31.390927 -2.871232
2007-03-14 09:50:36 51°14.775 2°53.17 16.9252 4.03256 31.390538 -2.871232
2007-03-14 09:51:36 51°14.777 2°52.818 16.942 4.032352 31.391559 -2.871232
2007-03-14 09:52:36 51°14.781 2°52.466 16.9562 4.032249 31.392774 -2.871232
2007-03-14 09:53:36 51°14.777 2°52.116 16.9535 4.031938 31.39219 -2.871232
2007-03-14 09:54:36 51°14.767 2°51.764 16.9544 4.03173 31.392506 -2.871232
2007-03-14 09:55:36 51°14.759 2°51.412 16.9647 4.031523 31.392822 -2.871232
2007-03-14 09:56:36 51°14.751 2°51.061 16.8747 4.031212 31.391533 -2.871232
2007-03-14 09:57:36 51°14.761 2°50.712 16.9525 4.031005 31.392555 -2.871232
2007-03-14 09:58:36 51°14.775 2°50.365 16.9701 4.030797 31.392871 -2.871232
2007-03-14 09:59:36 51°14.788 2°50.019 16.9406 4.03059 31.393187 -2.871232
2007-03-14 10:00:36 51°14.801 2°49.675 16.9269 4.030279 31.391898 -2.871232
2007-03-14 10:01:36 51°14.816 2°49.329 16.9478 4.029968 31.392019 -2.871232
2007-03-14 10:02:36 51°14.828 2°48.981 16.9961 4.029761 31.392335 -2.871232
2007-03-14 10:03:36 51°14.84 2°48.63 16.9638 4.029553 31.392652 -2.871232
2007-03-14 10:04:36 51°14.851 2°48.279 16.9952 4.029242 31.391362 -2.871232
2007-03-14 10:05:36 51°14.865 2°47.93 16.9594 4.029035 31.391679 -2.871232
2007-03-14 10:06:36 51°14.876 2°47.583 16.9511 4.028931 31.39219 -2.871232
2007-03-14 10:07:36 51°14.897 2°47.24 16.9912 4.02862 31.3909 -2.871232
2007-03-14 10:08:36 51°14.918 2°46.894 17.0035 4.028516 31.391411 -2.871232
2007-03-14 10:09:36 51°14.94 2°46.545 16.9836 4.028309 31.391022 -2.871232
2007-03-14 10:10:36 51°14.963 2°46.189 16.9885 4.028102 31.391338 -2.871232
2007-03-14 10:11:36 51°14.987 2°45.834 17.0182 4.027894 31.390949 -2.871232
2007-03-14 10:12:36 51°15.009 2°45.484 17.0047 4.027791 31.39146 -2.871232
2007-03-14 10:13:36 51°15.032 2°45.135 16.9998 4.027583 31.391071 -2.871232
2007-03-14 10:14:36 51°15.055 2°44.788 17.0417 4.02748 31.392288 -2.871232
2007-03-14 10:15:36 51°15.077 2°44.442 17.021 4.027272 31.391899 -2.871232
2007-03-14 10:16:36 51°15.099 2°44.094 17.04 4.027169 31.392411 -2.871232
2007-03-14 10:17:36 51°15.123 2°43.746 17.043 4.026961 31.392728 -2.871232
2007-03-14 10:18:36 51°15.146 2°43.399 17.0643 4.026754 31.392338 -2.871232
2007-03-14 10:19:36 51°15.17 2°43.051 17.0436 4.02665 31.393556 -2.871232
2007-03-14 10:20:36 51°15.194 2°42.701 17.0316 4.026547 31.394068 -2.871232
2007-03-14 10:21:36 51°15.224 2°42.353 17.0596 4.026339 31.393679 -2.871232
2007-03-14 10:22:36 51°15.303 2°42.023 17.0452 4.026132 31.393996 -2.871232
2007-03-14 10:23:37 51°15.413 2°41.702 17.0623 4.026028 31.394508 -2.871232
2007-03-14 10:24:36 51°15.543 2°41.412 17.0442 4.025717 31.392511 -2.871232
2007-03-14 10:25:36 51°15.73 2°41.199 17.08 4.025614 31.394436 -2.871232
2007-03-14 10:26:37 51°15.935 2°41.014 17.1001 4.025406 31.39546 -2.871232
2007-03-14 10:27:36 51°16.139 2°40.851 17.1195 4.025199 31.395071 -2.871232
2007-03-14 10:28:36 51°16.342 2°40.681 17.1099 4.024992 31.395388 -2.871232
2007-03-14 10:29:36 51°16.545 2°40.509 17.1382 4.024784 31.395706 -2.871232
2007-03-14 10:30:37 51°16.75 2°40.33 17.155 4.024577 31.395317 -2.871232
2007-03-14 10:31:36 51°16.948 2°40.156 17.1547 4.024266 31.39544 -2.871232
2007-03-14 10:32:36 51°17.15 2°39.975 17.1796 4.024059 31.395757 -2.871232
2007-03-14 10:33:37 51°17.352 2°39.79 17.1647 4.023748 31.395174 -2.871232
2007-03-14 10:34:36 51°17.554 2°39.633 17.1875 4.02354 31.395491 -2.871232
2007-03-14 10:35:36 51°17.772 2°39.505 17.1982 4.023333 31.395102 -2.871232
2007-03-14 10:36:36 51°17.981 2°39.352 17.1967 4.023126 31.39542 -2.871232
2007-03-14 10:37:36 51°18.191 2°39.2 17.207 4.022918 31.395031 -2.871232
2007-03-14 10:38:36 51°18.4 2°39.05 17.2441 4.022711 31.394642 -2.871232
2007-03-14 10:39:36 51°18.61 2°38.898 17.2404 4.022607 31.395861 -2.871232
2007-03-14 10:40:36 51°18.821 2°38.747 17.2393 4.0224 31.395472 -2.871232
2007-03-14 10:41:37 51°19.035 2°38.591 17.2686 4.022193 31.39579 -2.871232
2007-03-14 10:42:36 51°19.239 2°38.436 17.2702 4.021985 31.396109 -2.871232
2007-03-14 10:43:36 51°19.445 2°38.274 17.2627 4.021778 31.396427 -2.871232
2007-03-14 10:44:37 51°19.637 2°38.066 17.2571 4.021467 31.395843 -2.871232
2007-03-14 10:45:36 51°19.809 2°37.835 17.2974 4.02126 31.396161 -2.871232
2007-03-14 10:46:36 51°19.979 2°37.594 17.2771 4.021052 31.39648 -2.871232
2007-03-14 10:47:36 51°20.13 2°37.386 17.3614 4.020741 31.396604 -2.871232
2007-03-14 10:48:36 51°20.162 2°37.237 17.3254 4.02043 31.397435 -2.871232
2007-03-14 10:49:36 51°20.146 2°37.118 17.3514 4.020119 31.396144 -2.871232
2007-03-14 10:50:36 51°20.123 2°37.06 17.3593 4.019808 31.396268 -2.871232
2007-03-14 10:51:36 51°20.1 2°37.027 17.3552 4.019601 31.395171 -2.871232
2007-03-14 10:52:37 51°20.079 2°37.005 17.3739 4.01929 31.394587 -2.871232
2007-03-14 10:53:36 51°20.064 2°36.988 17.3811 4.019083 31.394905 -2.871232
2007-03-14 10:54:36 51°20.05 2°36.975 17.3807 4.018875 31.393808 -2.871232
2007-03-14 10:55:36 51°20.038 2°36.962 17.3979 4.018772 31.394321 -2.871232
2007-03-14 10:56:36 51°20.028 2°36.951 17.3812 4.018564 31.393224 -2.871232
2007-03-14 10:57:36 51°20.02 2°36.94 17.4051 4.018357 31.392127 -2.871232
2007-03-14 10:58:37 51°20.013 2°36.93 17.4135 4.018357 31.392835 -2.871232
2007-03-14 10:59:36 51°20.008 2°36.922 17.4151 4.018253 31.391932 -2.871232
2007-03-14 11:00:36 51°20.004 2°36.915 17.4252 4.018253 31.391932 -2.871232
2007-03-14 11:01:37 51°20 2°36.908 17.457 4.018253 31.39264 -2.871232
2007-03-14 11:02:36 51°19.997 2°36.903 17.4795 4.018253 31.39264 -2.871232
2007-03-14 11:03:36 51°19.994 2°36.899 17.4871 4.018253 31.393348 -2.871232
2007-03-14 11:04:37 51°19.992 2°36.896 17.4926 4.018253 31.394056 -2.871232
2007-03-14 11:05:37 51°19.99 2°36.894 17.4794 4.018253 31.394764 -2.871232
2007-03-14 11:06:36 51°19.988 2°36.892 17.4905 4.01815 31.39457 -2.871232
2007-03-14 11:07:37 51°19.986 2°36.891 17.5043 4.01815 31.395278 -2.871232
2007-03-14 11:08:36 51°19.984 2°36.89 17.5442 4.01815 31.395986 -2.871232
2007-03-14 11:09:36 51°19.983 2°36.89 17.5468 4.018046 31.395792 -2.871232
2007-03-14 11:10:37 51°19.982 2°36.89 17.5273 4.018046 31.3965 -2.871232
2007-03-14 11:11:36 51°19.981 2°36.89 17.5434 4.018046 31.3965 -2.871232
2007-03-14 11:12:36 51°19.98 2°36.891 17.5372 4.018046 31.397208 -2.871232
2007-03-14 11:13:37 51°19.98 2°36.892 17.5722 4.018046 31.397208 -2.871232
2007-03-14 11:14:37 51°19.979 2°36.894 17.5897 4.018046 31.397917 -2.871232
2007-03-14 11:15:36 51°19.978 2°36.897 17.5945 4.018046 31.398625 -2.871232
2007-03-14 11:16:37 51°19.977 2°36.9 17.5898 4.017942 31.397722 -2.871232
2007-03-14 11:17:36 51°19.977 2°36.902 17.6133 4.017942 31.399139 -2.871232
2007-03-14 11:18:36 51°19.976 2°36.906 17.6013 4.017942 31.399847 -2.871232
2007-03-14 11:19:37 51°19.976 2°36.906 17.6121 4.017839 31.399653 -2.871232
2007-03-14 11:20:36 51°19.975 2°36.91 17.6366 4.017839 31.400361 -2.871232
2007-03-14 11:21:36 51°19.975 2°36.913 17.6445 4.017839 31.400361 -2.871232
2007-03-14 11:22:37 51°19.974 2°36.918 17.6324 4.017839 31.40107 -2.871232
2007-03-14 11:23:36 51°19.973 2°36.922 17.6426 4.017839 31.401778 -2.871232
2007-03-14 11:24:36 51°19.972 2°36.926 17.6709 4.017735 31.400875 -2.871232
2007-03-14 11:25:37 51°19.971 2°36.931 17.6403 4.017839 31.401778 -2.871232
2007-03-14 11:26:36 51°19.97 2°36.935 17.6491 4.017839 31.401778 -2.871232
2007-03-14 11:27:36 51°19.969 2°36.939 17.6888 4.017839 31.401778 -2.871232
2007-03-14 11:28:37 51°19.968 2°36.944 17.6708 4.017839 31.402487 -2.871232
2007-03-14 11:29:36 51°19.967 2°36.946 17.7205 4.017942 31.402681 -2.871232
2007-03-14 11:30:37 51°19.965 2°36.949 17.7218 4.018046 31.402876 -2.871232
2007-03-14 11:31:36 51°19.964 2°36.952 17.7421 4.018046 31.402167 -2.871232
2007-03-14 11:32:37 51°19.963 2°36.955 17.7234 4.018253 31.403973 -2.871232
2007-03-14 11:33:36 51°19.962 2°36.957 17.7351 4.018253 31.403265 -2.871232
2007-03-14 11:34:37 51°19.961 2°36.961 17.7435 4.018461 31.404362 -2.871232
2007-03-14 11:35:36 51°19.96 2°36.963 17.7451 4.018668 31.404751 -2.871232
2007-03-14 11:36:36 51°19.959 2°36.966 17.7346 4.018772 31.404946 -2.871232
2007-03-14 11:37:37 51°19.957 2°36.968 17.759 4.018875 31.40514 -2.871232
2007-03-14 11:38:37 51°19.955 2°36.97 17.7657 4.019083 31.406238 -2.871232
2007-03-14 11:39:37 51°19.953 2°36.973 17.7771 4.01929 31.407335 -2.871232
2007-03-14 11:40:36 51°19.951 2°36.975 17.7724 4.019497 31.407724 -2.871232
2007-03-14 11:41:37 51°19.949 2°36.976 17.8135 4.019601 31.407918 -2.871232
2007-03-14 11:42:36 51°19.947 2°36.977 17.7628 4.019912 31.409918 -2.871232
2007-03-14 11:43:36 51°19.944 2°36.978 17.8306 4.020016 31.408696 -2.871232
2007-03-14 11:44:37 51°19.942 2°36.979 17.8159 4.020223 31.409793 -2.871232
2007-03-14 11:45:37 51°19.94 2°36.978 17.8116 4.020431 31.41089 -2.871232
2007-03-14 11:46:36 51°19.938 2°36.977 17.8232 4.020638 31.411279 -2.871232
2007-03-14 11:47:37 51°19.935 2°36.975 17.8218 4.020845 31.412376 -2.871232
2007-03-14 11:48:37 51°19.933 2°36.975 17.8236 4.021053 31.412765 -2.871232
2007-03-14 11:49:36 51°19.932 2°36.975 17.8066 4.02126 31.413862 -2.871232
2007-03-14 11:50:37 51°19.931 2°36.974 17.8483 4.021467 31.41425 -2.871232
2007-03-14 11:51:36 51°19.929 2°36.974 17.8511 4.021675 31.41393 -2.871232
2007-03-14 11:52:36 51°19.928 2°36.974 17.8573 4.021882 31.414319 -2.871232
2007-03-14 11:53:37 51°19.926 2°36.974 17.8625 4.022193 31.41561 -2.871232
2007-03-14 11:54:37 51°19.924 2°36.973 17.8643 4.0224 31.416707 -2.871232
2007-03-14 11:55:36 51°19.922 2°36.973 17.8838 4.022608 31.417095 -2.871232
2007-03-14 11:56:37 51°19.919 2°36.973 17.8728 4.022815 31.417484 -2.871232
2007-03-14 11:57:37 51°19.917 2°36.973 17.8793 4.023022 31.417872 -2.871232
2007-03-14 11:58:36 51°19.914 2°36.972 17.8757 4.02323 31.418261 -2.871232
2007-03-14 11:59:37 51°19.911 2°36.971 17.8637 4.023541 31.418843 -2.871232
2007-03-14 12:00:36 51°19.909 2°36.97 17.892 4.023748 31.418524 -2.871232
2007-03-14 12:01:36 51°19.906 2°36.969 17.8952 4.024059 31.419106 -2.871232
2007-03-14 12:02:37 51°19.903 2°36.967 17.874 4.024266 31.418786 -2.871232
2007-03-14 12:03:37 51°19.899 2°36.967 17.907 4.024681 31.420271 -2.871232
2007-03-14 12:04:37 51°19.897 2°36.965 17.8737 4.024992 31.420854 -2.871232
2007-03-14 12:05:37 51°19.894 2°36.963 17.9228 4.025303 31.421436 -2.871232
2007-03-14 12:06:36 51°19.89 2°36.961 17.9279 4.025614 31.42131 -2.871232
2007-03-14 12:07:36 51°19.887 2°36.959 17.9248 4.026029 31.422795 -2.871232
2007-03-14 12:08:37 51°19.884 2°36.957 17.9371 4.026236 31.422475 -2.871232
2007-03-14 12:09:36 51°19.881 2°36.954 17.946 4.026547 31.423058 -2.871232
2007-03-14 12:10:37 51°19.872 2°36.947 17.9608 4.026962 31.424542 -2.871232
2007-03-14 12:11:37 51°19.847 2°36.916 17.9789 4.027273 31.425124 -2.871232
2007-03-14 12:12:36 51°19.827 2°36.89 17.9434 4.027688 31.426608 -2.871232
2007-03-14 12:13:37 51°19.811 2°36.868 17.9545 4.027999 31.42719 -2.871232
2007-03-14 12:14:36 51°19.798 2°36.849 17.969 4.02831 31.427772 -2.871232
2007-03-14 12:15:36 51°19.788 2°36.834 17.9146 4.028621 31.427646 -2.871232
2007-03-14 12:16:36 51°19.779 2°36.822 17.9438 4.028828 31.427327 -2.871232
2007-03-14 12:17:37 51°19.77 2°36.81 17.9393 4.029139 31.427909 -2.871232
2007-03-14 12:18:37 51°19.763 2°36.799 17.9556 4.02945 31.428491 -2.871232
2007-03-14 12:19:37 51°19.749 2°36.781 17.9941 4.029657 31.428171 -2.871232
2007-03-14 12:20:37 51°19.709 2°36.786 18.021 4.029969 31.430168 -2.871232
2007-03-14 12:21:36 51°19.698 2°36.866 18.0312 4.03028 31.43075 -2.871232
2007-03-14 12:22:37 51°19.755 2°36.909 17.9821 4.030591 31.42921 -2.871232
2007-03-14 12:23:36 51°19.837 2°36.896 17.9897 4.030902 31.431206 -2.871232
2007-03-14 12:24:36 51°19.911 2°36.88 18.0174 4.031109 31.432301 -2.871232
2007-03-14 12:25:36 51°19.973 2°36.866 18.0016 4.03142 31.432883 -2.871232
2007-03-14 12:26:37 51°20.019 2°36.85 18.0213 4.031731 31.432758 -2.871232
2007-03-14 12:27:37 51°20.054 2°36.831 18.041 4.032042 31.433339 -2.871232
2007-03-14 12:28:37 51°20.081 2°36.822 18.0272 4.032353 31.433214 -2.871232
2007-03-14 12:29:37 51°20.102 2°36.809 18.0528 4.032768 31.433989 -2.871232
2007-03-14 12:30:36 51°20.118 2°36.783 18.0599 4.032975 31.432963 -2.871232
2007-03-14 12:31:37 51°20.127 2°36.748 18.0526 4.033286 31.432838 -2.871232
2007-03-14 12:32:36 51°20.128 2°36.713 18.0674 4.033701 31.433614 -2.871232
2007-03-14 12:33:36 51°20.126 2°36.685 18.0741 4.034012 31.434195 -2.871232
2007-03-14 12:34:37 51°20.123 2°36.661 18.0891 4.034323 31.435484 -2.871232
2007-03-14 12:35:37 51°20.116 2°36.643 18.0903 4.034738 31.436259 -2.871232
2007-03-14 12:36:37 51°20.11 2°36.63 18.1013 4.034945 31.43594 -2.871232
2007-03-14 12:37:37 51°20.103 2°36.618 18.1016 4.035256 31.435815 -2.871232
2007-03-14 12:38:37 51°20.097 2°36.609 18.0987 4.035567 31.43569 -2.871232
2007-03-14 12:39:36 51°20.09 2°36.603 18.1403 4.035982 31.436465 -2.871232
2007-03-14 12:40:37 51°20.084 2°36.596 18.1329 4.036293 31.43634 -2.871232
2007-03-14 12:41:36 51°20.077 2°36.591 18.1111 4.036707 31.437822 -2.871232
2007-03-14 12:42:36 51°20.072 2°36.588 18.1348 4.037122 31.436478 -2.871232
2007-03-14 12:43:37 51°20.067 2°36.586 18.17 4.037433 31.43706 -2.871232
2007-03-14 12:44:37 51°20.063 2°36.582 18.1698 4.037848 31.437835 -2.871232
2007-03-14 12:45:37 51°20.059 2°36.578 18.1797 4.038263 31.43861 -2.871232
2007-03-14 12:46:37 51°20.055 2°36.573 18.1812 4.038677 31.439385 -2.871232
2007-03-14 12:47:37 51°20.051 2°36.568 18.1782 4.039092 31.439454 -2.871232
2007-03-14 12:48:36 51°20.047 2°36.563 18.175 4.039507 31.439523 -2.871232
2007-03-14 12:49:37 51°20.043 2°36.556 18.1759 4.039921 31.439593 -2.871232
2007-03-14 12:50:36 51°20.04 2°36.55 18.1866 4.040336 31.439662 -2.871232
2007-03-14 12:51:36 51°20.035 2°36.543 18.2025 4.040751 31.440437 -2.871232
2007-03-14 12:52:37 51°20.026 2°36.627 18.1809 4.041269 31.4407 -2.871232
2007-03-14 12:53:37 51°19.997 2°36.865 18.1261 4.041787 31.440963 -2.871232
2007-03-14 12:54:37 51°19.908 2°36.993 18.2237 4.042306 31.444048 -2.871232
2007-03-14 12:55:36 51°19.9 2°37.098 18.213 4.042824 31.445016 -2.871232
2007-03-14 12:56:36 51°19.946 2°37.129 18.1885 4.043343 31.444574 -2.871232
2007-03-14 12:57:36 51°19.983 2°37.09 18.1794 4.043965 31.44503 -2.871232
2007-03-14 12:58:37 51°20.017 2°37.052 18.2168 4.044379 31.448625 -2.871232
2007-03-14 12:59:36 51°20.046 2°37.002 18.2324 4.044794 31.449399 -2.871232
2007-03-14 13:00:36 51°20.067 2°36.944 18.2329 4.045105 31.447865 -2.871232
2007-03-14 13:01:37 51°20.087 2°36.887 18.2111 4.045624 31.449538 -2.871232
2007-03-14 13:02:36 51°20.1 2°36.853 18.2421 4.046038 31.448902 -2.871232
2007-03-14 13:03:37 51°20.108 2°36.829 18.2352 4.046453 31.448971 -2.871232
2007-03-14 13:04:37 51°20.113 2°36.808 18.2484 4.046868 31.448336 -2.871232
2007-03-14 13:05:36 51°20.117 2°36.791 18.2442 4.047386 31.449304 -2.871232
2007-03-14 13:06:36 51°20.118 2°36.776 18.2806 4.047904 31.449567 -2.871232
2007-03-14 13:07:36 51°20.117 2°36.767 18.2652 4.048319 31.449637 -2.871232
2007-03-14 13:08:37 51°20.108 2°36.771 18.2741 4.048838 31.4499 -2.871232
2007-03-14 13:09:36 51°20.096 2°36.778 18.2877 4.049252 31.44997 -2.871232
2007-03-14 13:10:37 51°20.085 2°36.782 18.2771 4.049771 31.450233 -2.871232
2007-03-14 13:11:36 51°20.074 2°36.785 18.2884 4.050289 31.451201 -2.871232
2007-03-14 13:12:36 51°20.064 2°36.784 18.2947 4.050807 31.451464 -2.871232
2007-03-14 13:13:36 51°20.063 2°36.773 18.2967 4.051222 31.451534 -2.871232
2007-03-14 13:14:36 51°20.061 2°36.764 18.3019 4.051741 31.451797 -2.871232
2007-03-14 13:15:37 51°20.058 2°36.756 18.2954 4.052259 31.452765 -2.871232
2007-03-14 13:16:36 51°20.055 2°36.748 18.3042 4.052777 31.453732 -2.871232
2007-03-14 13:17:37 51°20.052 2°36.74 18.315 4.053192 31.453802 -2.871232
2007-03-14 13:18:36 51°20.049 2°36.733 18.2933 4.05371 31.454066 -2.871232
2007-03-14 13:19:37 51°20.044 2°36.726 18.2848 4.054125 31.452026 -2.871232
2007-03-14 13:20:36 51°20.039 2°36.719 18.3021 4.054644 31.452993 -2.871232
2007-03-14 13:21:37 51°20.034 2°36.712 18.3216 4.055162 31.45396 -2.871232
2007-03-14 13:22:36 51°20.029 2°36.706 18.3299 4.05568 31.454927 -2.871232
2007-03-14 13:23:37 51°20.023 2°36.698 18.3276 4.056095 31.454295 -2.871232
2007-03-14 13:24:37 51°20.018 2°36.69 18.3377 4.056613 31.455262 -2.871232
2007-03-14 13:25:36 51°20.013 2°36.683 18.3098 4.057132 31.456229 -2.871232
2007-03-14 13:26:36 51°20.007 2°36.676 18.3312 4.05765 31.457196 -2.871232
2007-03-14 13:27:36 51°20.001 2°36.668 18.3367 4.058065 31.456563 -2.871232
2007-03-14 13:28:37 51°19.994 2°36.66 18.3366 4.058583 31.45753 -2.871232
2007-03-14 13:29:36 51°20.005 2°36.678 18.3669 4.059102 31.460605 -2.871232
2007-03-14 13:30:37 51°20.105 2°36.754 18.3477 4.05962 31.459463 -2.871232
2007-03-14 13:31:36 51°20.266 2°36.896 18.32 4.060035 31.460939 -2.871232
2007-03-14 13:32:37 51°20.432 2°37.112 18.3254 4.06045 31.460307 -2.871232
2007-03-14 13:33:37 51°20.59 2°37.349 18.3191 4.060968 31.459869 -2.871232
2007-03-14 13:34:36 51°20.74 2°37.592 18.3248 4.061383 31.45994 -2.871232
2007-03-14 13:35:37 51°20.893 2°37.845 18.3519 4.061797 31.461415 -2.871232
2007-03-14 13:36:36 51°21.042 2°38.089 18.3315 4.062109 31.461995 -2.871232
2007-03-14 13:37:37 51°21.192 2°38.324 18.3489 4.062523 31.464172 -2.871232
2007-03-14 13:38:37 51°21.279 2°38.414 18.3687 4.062834 31.465454 -2.871232
2007-03-14 13:39:37 51°21.321 2°38.403 18.3983 4.063042 31.463734 -2.871232
2007-03-14 13:40:37 51°21.336 2°38.367 18.3659 4.063456 31.465911 -2.871232
2007-03-14 13:41:37 51°21.33 2°38.302 18.3821 4.063664 31.465595 -2.871232
2007-03-14 13:42:37 51°21.284 2°38.257 18.3949 4.063871 31.464578 -2.871232
2007-03-14 13:43:36 51°21.238 2°38.282 18.3965 4.064182 31.464456 -2.871232
2007-03-14 13:44:37 51°21.21 2°38.316 18.3815 4.06439 31.466246 -2.871232
2007-03-14 13:45:36 51°21.192 2°38.335 18.3846 4.064701 31.467527 -2.871232
2007-03-14 13:46:37 51°21.183 2°38.33 18.3797 4.064908 31.467211 -2.871232
2007-03-14 13:47:36 51°21.176 2°38.317 18.3908 4.065219 31.466387 -2.871232
2007-03-14 13:48:37 51°21.169 2°38.306 18.3888 4.06553 31.465564 -2.871232
2007-03-14 13:49:37 51°21.162 2°38.297 18.4203 4.065945 31.465635 -2.871232
2007-03-14 13:50:36 51°21.155 2°38.289 18.428 4.066256 31.465513 -2.871232
2007-03-14 13:51:37 51°21.151 2°38.27 18.4342 4.06667 31.464883 -2.871232
2007-03-14 13:52:36 51°21.142 2°38.282 18.4422 4.067189 31.467251 -2.871232
2007-03-14 13:53:37 51°21.153 2°38.316 18.4266 4.067604 31.46592 -2.871232
2007-03-14 13:54:37 51°21.187 2°38.322 18.4229 4.068122 31.466185 -2.871232
2007-03-14 13:55:37 51°21.213 2°38.341 18.4274 4.068433 31.467465 -2.871232
2007-03-14 13:56:37 51°21.221 2°38.36 18.433 4.068952 31.468431 -2.871232
2007-03-14 13:57:37 51°21.22 2°38.372 18.4519 4.069366 31.467801 -2.871232
2007-03-14 13:58:37 51°21.215 2°38.373 18.4339 4.069781 31.467873 -2.871232
2007-03-14 13:59:37 51°21.208 2°38.366 18.452 4.070299 31.468839 -2.871232
2007-03-14 14:00:37 51°21.201 2°38.357 18.4422 4.070714 31.46821 -2.871232
2007-03-14 14:01:37 51°21.198 2°38.34 18.4715 4.071233 31.469175 -2.871232
2007-03-14 14:02:37 51°21.195 2°38.323 18.4721 4.071647 31.469247 -2.871232
2007-03-14 14:03:37 51°21.191 2°38.309 18.4892 4.072166 31.469512 -2.871232
2007-03-14 14:04:37 51°21.186 2°38.295 18.4861 4.07258 31.469584 -2.871232
2007-03-14 14:05:37 51°21.181 2°38.282 18.4738 4.073099 31.470549 -2.871232
2007-03-14 14:06:37 51°21.174 2°38.274 18.5107 4.073617 31.471514 -2.871232
2007-03-14 14:07:37 51°21.138 2°38.294 18.5033 4.074136 31.47318 -2.871232
2007-03-14 14:08:37 51°21.007 2°38.364 18.4533 4.074654 31.474845 -2.871232
2007-03-14 14:09:37 51°20.814 2°38.532 18.4053 4.075173 31.473709 -2.871232
2007-03-14 14:10:37 51°20.6 2°38.654 18.4687 4.075587 31.472382 -2.871232
2007-03-14 14:11:37 51°20.381 2°38.764 18.501 4.076106 31.474047 -2.871232
2007-03-14 14:12:37 51°20.16 2°38.862 18.4724 4.07652 31.475518 -2.871232
2007-03-14 14:13:37 51°19.937 2°38.953 18.4721 4.076935 31.47699 -2.871232
2007-03-14 14:14:37 51°19.716 2°39.046 18.4587 4.077246 31.478268 -2.871232
2007-03-14 14:15:37 51°19.496 2°39.138 18.4923 4.077454 31.479354 -2.871232
2007-03-14 14:16:37 51°19.276 2°39.229 18.4994 4.077661 31.479739 -2.871232
2007-03-14 14:17:37 51°19.056 2°39.322 18.4689 4.077765 31.480632 -2.871232
2007-03-14 14:18:37 51°18.833 2°39.414 18.5215 4.077765 31.480632 -2.871232
2007-03-14 14:19:37 51°18.612 2°39.506 18.5271 4.077868 31.480825 -2.871232
2007-03-14 14:20:37 51°18.393 2°39.599 18.4937 4.077868 31.480825 -2.871232
2007-03-14 14:21:37 51°18.176 2°39.687 18.5315 4.077868 31.480825 -2.871232
2007-03-14 14:22:37 51°17.96 2°39.772 18.567 4.077765 31.480632 -2.871232
2007-03-14 14:23:37 51°17.749 2°39.875 18.5159 4.077661 31.480439 -2.871232
2007-03-14 14:24:37 51°17.538 2°39.976 18.5174 4.077557 31.480246 -2.871232
2007-03-14 14:25:37 51°17.326 2°40.08 18.5431 4.077557 31.480246 -2.871232
2007-03-14 14:26:37 51°17.113 2°40.191 18.5061 4.07735 31.479861 -2.871232
2007-03-14 14:27:37 51°16.902 2°40.32 18.5002 4.077143 31.478775 -2.871232
2007-03-14 14:28:37 51°16.691 2°40.449 18.5504 4.077039 31.477882 -2.871232
2007-03-14 14:29:37 51°16.48 2°40.577 18.5519 4.076831 31.476797 -2.871232
2007-03-14 14:30:37 51°16.271 2°40.713 18.5649 4.076624 31.475711 -2.871232
2007-03-14 14:31:37 51°16.065 2°40.861 18.5207 4.07652 31.475518 -2.871232
2007-03-14 14:32:37 51°15.86 2°41.006 18.5597 4.076417 31.474625 -2.871232
2007-03-14 14:33:37 51°15.657 2°41.149 18.5906 4.076209 31.47284 -2.871232
2007-03-14 14:34:37 51°15.49 2°41.358 18.5988 4.076106 31.474746 -2.871232
2007-03-14 14:35:37 51°15.424 2°41.673 18.5658 4.076002 31.473154 -2.871232
2007-03-14 14:36:37 51°15.426 2°42.007 18.5694 4.075898 31.471561 -2.871232
2007-03-14 14:37:37 51°15.424 2°42.344 18.5683 4.075795 31.470669 -2.871232
2007-03-14 14:38:37 51°15.413 2°42.683 18.5489 4.075587 31.468883 -2.871232
2007-03-14 14:39:38 51°15.399 2°43.028 18.5726 4.075587 31.468883 -2.871232
2007-03-14 14:40:37 51°15.385 2°43.361 18.5869 4.075587 31.468184 -2.871232
2007-03-14 14:41:37 51°15.369 2°43.7 18.584 4.075587 31.467484 -2.871232
2007-03-14 14:42:37 51°15.351 2°44.038 18.6213 4.075587 31.466785 -2.871232
2007-03-14 14:43:37 51°15.334 2°44.378 18.6242 4.075691 31.466978 -2.871232
2007-03-14 14:44:37 51°15.318 2°44.717 18.6266 4.075691 31.466278 -2.871232
2007-03-14 14:45:37 51°15.294 2°45.054 18.6093 4.075691 31.465579 -2.871232
2007-03-14 14:46:38 51°15.264 2°45.394 18.6418 4.075794 31.465772 -2.871232
2007-03-14 14:47:37 51°15.244 2°45.724 18.625 4.075898 31.465965 -2.871232
2007-03-14 14:48:37 51°15.255 2°46.056 18.5752 4.075898 31.463867 -2.871232
2007-03-14 14:49:38 51°15.234 2°46.395 18.6509 4.076106 31.465652 -2.871232
2007-03-14 14:50:37 51°15.209 2°46.723 18.6178 4.076105 31.464253 -2.871232
2007-03-14 14:51:38 51°15.182 2°47.061 18.6531 4.076209 31.464446 -2.871232
2007-03-14 14:52:38 51°15.158 2°47.393 18.6568 4.076313 31.464639 -2.871232
2007-03-14 14:53:37 51°15.132 2°47.723 18.7079 4.076417 31.464133 -2.871232
2007-03-14 14:54:37 51°15.106 2°48.066 18.6746 4.07652 31.464326 -2.871232
2007-03-14 14:55:38 51°15.079 2°48.41 18.691 4.076624 31.46452 -2.871232
2007-03-14 14:56:37 51°15.055 2°48.741 18.6782 4.076624 31.463121 -2.871232
2007-03-14 14:57:38 51°15.03 2°49.083 18.661 4.076728 31.463314 -2.871232
2007-03-14 14:58:38 51°15.004 2°49.421 18.708 4.076935 31.4644 -2.871232
2007-03-14 14:59:37 51°14.98 2°49.751 18.7135 4.076935 31.463002 -2.871232
2007-03-14 15:00:38 51°14.955 2°50.092 18.7098 4.077039 31.463894 -2.871232
2007-03-14 15:01:37 51°14.931 2°50.422 18.7255 4.077142 31.463388 -2.871232
2007-03-14 15:02:37 51°14.907 2°50.757 18.7099 4.077246 31.463581 -2.871232
2007-03-14 15:03:37 51°14.884 2°51.091 18.7352 4.07735 31.463075 -2.871232
2007-03-14 15:04:37 51°14.86 2°51.424 18.7319 4.077453 31.463268 -2.871232
2007-03-14 15:05:37 51°14.836 2°51.757 18.74 4.077557 31.462763 -2.871232
2007-03-14 15:06:37 51°14.812 2°52.091 18.7419 4.077661 31.462956 -2.871232
2007-03-14 15:07:37 51°14.789 2°52.424 18.7397 4.077764 31.463149 -2.871232
2007-03-14 15:08:37 51°14.772 2°52.682 18.7772 4.077868 31.463342 -2.871232
2007-03-14 15:09:37 51°14.757 2°52.843 18.809 4.077868 31.461246 -2.871232
2007-03-14 15:10:37 51°14.738 2°53.003 18.7882 4.077972 31.46074 -2.871232
2007-03-14 15:11:37 51°14.704 2°53.172 18.7531 4.078179 31.461825 -2.871232
2007-03-14 15:12:37 51°14.667 2°53.343 18.7574 4.078283 31.460621 -2.871232
2007-03-14 15:13:37 51°14.635 2°53.495 18.7885 4.078594 31.461899 -2.871232
2007-03-14 15:14:37 51°14.609 2°53.62 18.8205 4.078801 31.46019 -2.871232
2007-03-14 15:15:37 51°14.576 2°53.778 18.8159 4.079112 31.460769 -2.871232
2007-03-14 15:16:37 51°14.533 2°53.985 18.7832 4.079423 31.46065 -2.871232
2007-03-14 15:17:37 51°14.483 2°54.258 18.7847 4.079734 31.46123 -2.871232
2007-03-14 15:18:37 51°14.44 2°54.587 18.8365 4.080045 31.462508 -2.871232
2007-03-14 15:19:37 51°14.417 2°54.926 18.7749 4.08046 31.461884 -2.871232
2007-03-14 15:20:37 51°14.314 2°55.217 18.7635 4.080668 31.46227 -2.871232
2007-03-14 15:21:37 51°14.148 2°55.402 18.818 4.081082 31.461647 -2.871232
2007-03-14 15:22:37 51°13.989 2°55.518 18.8352 4.08129 31.461335 -2.871232
2007-03-14 15:23:37 51°13.834 2°55.632 18.8788 4.081704 31.463504 -2.871232
2007-03-14 15:24:37 51°13.727 2°55.755 18.8775 4.082015 31.463385 -2.871232
2007-03-14 15:25:39 51°13.678 2°55.855 18.876 4.082326 31.463266 -2.871232
2007-03-14 15:26:41 51°13.642 2°55.938 18.8799 4.082534 31.462955 -2.871232
2007-03-14 15:27:41 51°13.617 2°56.012 18.88 4.082845 31.463534 -2.871232
2007-03-14 15:28:41 51°13.606 2°56.067 18.916 4.083156 31.463416 -2.871232
2007-03-14 15:29:39 51°13.6 2°56.09 18.9225 4.083467 31.463995 -2.871232